Strona główna
METAR-TAF:

METAR-TAF

Lotnisko :

Port lotniczy Sewilla-San Pablo

Sewilla, Hiszpania

Szerokość geograficzna: 37-25N, Długość geograficzna: 005-54W, wysokość: 34 m

Aktualna obserwacja pogody

Raport powstał 33 minut temu, godzina 01:00 UTC
Wiatr 6 kt od północny wschód
Temperatura 10°C
Wilgotność 66%
Ciśnienie 1015 hPa
Widzialność 10 km lub więcej
Brak chmur poniżej 1500 m i brak chmur cumulonimbus

METAR: LEZL 210100Z AUTO 04006KT CAVOK 10/04 Q1015

czas: 02:33 (01:33 UTC)

Prognoza

Raport powstał 5 godziny i 33 minut temu, godzina 20:00 UTC
Prognoza ważna od 20 godzina 21 UTC do 21 godzina 21 UTC
Wiatr 8 kt od północny wschód
Widzialność 10 km lub więcej
Mało chmury na wysokości 4500 ft

TAF: LEZL 202000Z 2021/2121 04008KT 9999 FEW045 TX15/2115Z TN06/2107Z

Obserwacja i prognoza pogody dla ponad 4000 lotnisk (raport METAR i TAF).

Dostępne stacje oznaczono żółtymi i czerwonymi punktami na mapie.

Najedź kursorem aby zobaczyć nazwę stacji.

Kliknij aby zobaczyć obserwacje i prognozy pogody.

Aby zmienić mapę: kliknij na zielony przycisk z czarnym krzyżykiem, aby powiększyć; na zielony przycisk z myślnikiem, aby pomniejszyć; na zielone strzałki, aby przejść do map sąsiednich.


METAR-TAF: